sensor_id;sensor_type;location;lat;lon;timestamp;pressure;altitude;pressure_sealevel;temperature;humidity
56174;BME280;42058;52.308;20.924;2023-06-22T00:02:28;100656.73;;;21.57;100.00
56174;BME280;42058;52.308;20.924;2023-06-22T00:04:56;100657.31;;;21.54;100.00
56174;BME280;42058;52.308;20.924;2023-06-22T00:07:35;100658.31;;;21.53;100.00
56174;BME280;42058;52.308;20.924;2023-06-22T00:10:04;100653.33;;;21.50;100.00
56174;BME280;42058;52.308;20.924;2023-06-22T00:12:32;100654.38;;;21.47;100.00
56174;BME280;42058;52.308;20.924;2023-06-22T00:15:03;100654.52;;;21.45;100.00
56174;BME280;42058;52.308;20.924;2023-06-22T00:17:51;100656.95;;;21.43;100.00
56174;BME280;42058;52.308;20.924;2023-06-22T00:23:24;100656.02;;;21.39;100.00
56174;BME280;42058;52.308;20.924;2023-06-22T00:26:00;100656.88;;;21.37;100.00
56174;BME280;42058;52.308;20.924;2023-06-22T00:28:31;100654.59;;;21.33;100.00
56174;BME280;42058;52.308;20.924;2023-06-22T00:31:02;100655.30;;;21.30;100.00
56174;BME280;42058;52.308;20.924;2023-06-22T00:33:40;100655.81;;;21.28;100.00
56174;BME280;42058;52.308;20.924;2023-06-22T00:38:59;100650.74;;;21.24;100.00
56174;BME280;42058;52.308;20.924;2023-06-22T00:41:49;100656.27;;;21.22;100.00
56174;BME280;42058;52.308;20.924;2023-06-22T00:44:37;100653.67;;;21.20;100.00
56174;BME280;42058;52.308;20.924;2023-06-22T00:47:08;100645.27;;;21.18;100.00
56174;BME280;42058;52.308;20.924;2023-06-22T00:49:52;100648.73;;;21.17;100.00
56174;BME280;42058;52.308;20.924;2023-06-22T00:52:43;100647.52;;;21.14;100.00
56174;BME280;42058;52.308;20.924;2023-06-22T00:55:32;100646.95;;;21.12;100.00
56174;BME280;42058;52.308;20.924;2023-06-22T00:58:14;100646.43;;;21.09;100.00
56174;BME280;42058;52.308;20.924;2023-06-22T01:00:53;100637.99;;;21.07;100.00
56174;BME280;42058;52.308;20.924;2023-06-22T01:04:53;100633.23;;;21.06;100.00
56174;BME280;42058;52.308;20.924;2023-06-22T01:07:33;100632.11;;;21.01;100.00
56174;BME280;42058;52.308;20.924;2023-06-22T01:10:27;100626.98;;;20.99;100.00
56174;BME280;42058;52.308;20.924;2023-06-22T01:13:07;100622.02;;;20.95;100.00
56174;BME280;42058;52.308;20.924;2023-06-22T01:15:46;100619.91;;;20.92;100.00
56174;BME280;42058;52.308;20.924;2023-06-22T01:18:18;100619.83;;;20.88;100.00
56174;BME280;42058;52.308;20.924;2023-06-22T01:20:47;100619.52;;;20.84;100.00
56174;BME280;42058;52.308;20.924;2023-06-22T01:23:27;100624.80;;;20.80;100.00
56174;BME280;42058;52.308;20.924;2023-06-22T01:26:05;100630.19;;;20.77;100.00
56174;BME280;42058;52.308;20.924;2023-06-22T01:28:50;100620.67;;;20.72;100.00
56174;BME280;42058;52.308;20.924;2023-06-22T01:31:23;100614.63;;;20.69;100.00
56174;BME280;42058;52.308;20.924;2023-06-22T01:33:57;100612.05;;;20.65;100.00
56174;BME280;42058;52.308;20.924;2023-06-22T01:36:26;100612.42;;;20.62;100.00
56174;BME280;42058;52.308;20.924;2023-06-22T01:38:57;100617.23;;;20.59;100.00
56174;BME280;42058;52.308;20.924;2023-06-22T01:41:26;100616.76;;;20.55;100.00
56174;BME280;42058;52.308;20.924;2023-06-22T01:43:56;100616.20;;;20.53;100.00
56174;BME280;42058;52.308;20.924;2023-06-22T01:46:24;100620.14;;;20.50;100.00
56174;BME280;42058;52.308;20.924;2023-06-22T01:48:53;100621.52;;;20.47;100.00
56174;BME280;42058;52.308;20.924;2023-06-22T01:51:22;100622.05;;;20.45;100.00
56174;BME280;42058;52.308;20.924;2023-06-22T01:53:50;100627.50;;;20.43;100.00
56174;BME280;42058;52.308;20.924;2023-06-22T01:56:19;100627.66;;;20.41;100.00
56174;BME280;42058;52.308;20.924;2023-06-22T01:59:01;100627.07;;;20.39;100.00
56174;BME280;42058;52.308;20.924;2023-06-22T02:01:38;100630.45;;;20.36;100.00
56174;BME280;42058;52.308;20.924;2023-06-22T02:04:13;100638.63;;;20.34;100.00
56174;BME280;42058;52.308;20.924;2023-06-22T02:06:47;100644.65;;;20.32;100.00
56174;BME280;42058;52.308;20.924;2023-06-22T02:09:20;100653.50;;;20.30;100.00
56174;BME280;42058;52.308;20.924;2023-06-22T02:11:50;100658.75;;;20.28;100.00
56174;BME280;42058;52.308;20.924;2023-06-22T02:14:23;100660.07;;;20.27;100.00
56174;BME280;42058;52.308;20.924;2023-06-22T02:16:53;100661.23;;;20.26;100.00
56174;BME280;42058;52.308;20.924;2023-06-22T02:19:24;100659.53;;;20.24;100.00
56174;BME280;42058;52.308;20.924;2023-06-22T02:21:53;100657.10;;;20.24;100.00
56174;BME280;42058;52.308;20.924;2023-06-22T02:24:21;100656.47;;;20.22;100.00
56174;BME280;42058;52.308;20.924;2023-06-22T02:26:50;100659.23;;;20.21;100.00
56174;BME280;42058;52.308;20.924;2023-06-22T02:29:18;100667.80;;;20.21;100.00
56174;BME280;42058;52.308;20.924;2023-06-22T02:31:46;100670.11;;;20.21;100.00
56174;BME280;42058;52.308;20.924;2023-06-22T02:34:14;100679.42;;;20.20;100.00
56174;BME280;42058;52.308;20.924;2023-06-22T02:36:46;100682.27;;;20.20;100.00
56174;BME280;42058;52.308;20.924;2023-06-22T02:39:20;100687.63;;;20.20;100.00
56174;BME280;42058;52.308;20.924;2023-06-22T02:41:50;100695.98;;;20.20;100.00
56174;BME280;42058;52.308;20.924;2023-06-22T02:44:19;100698.67;;;20.20;100.00
56174;BME280;42058;52.308;20.924;2023-06-22T02:46:49;100697.27;;;20.20;100.00
56174;BME280;42058;52.308;20.924;2023-06-22T02:49:17;100702.77;;;20.20;100.00
56174;BME280;42058;52.308;20.924;2023-06-22T02:51:46;100705.44;;;20.20;100.00
56174;BME280;42058;52.308;20.924;2023-06-22T02:54:16;100714.29;;;20.21;100.00
56174;BME280;42058;52.308;20.924;2023-06-22T02:56:45;100712.70;;;20.21;100.00
56174;BME280;42058;52.308;20.924;2023-06-22T02:59:13;100715.46;;;20.22;100.00
56174;BME280;42058;52.308;20.924;2023-06-22T03:01:40;100716.85;;;20.23;100.00
56174;BME280;42058;52.308;20.924;2023-06-22T03:04:21;100712.01;;;20.23;100.00
56174;BME280;42058;52.308;20.924;2023-06-22T03:06:49;100716.05;;;20.24;100.00
56174;BME280;42058;52.308;20.924;2023-06-22T03:09:20;100722.27;;;20.24;100.00
56174;BME280;42058;52.308;20.924;2023-06-22T03:11:47;100720.30;;;20.24;100.00
56174;BME280;42058;52.308;20.924;2023-06-22T03:14:15;100724.32;;;20.26;100.00
56174;BME280;42058;52.308;20.924;2023-06-22T03:16:43;100723.64;;;20.25;100.00
56174;BME280;42058;52.308;20.924;2023-06-22T03:19:11;100727.89;;;20.25;100.00
56174;BME280;42058;52.308;20.924;2023-06-22T03:21:40;100727.81;;;20.27;100.00
56174;BME280;42058;52.308;20.924;2023-06-22T03:24:08;100725.70;;;20.26;100.00
56174;BME280;42058;52.308;20.924;2023-06-22T03:26:35;100724.41;;;20.27;100.00
56174;BME280;42058;52.308;20.924;2023-06-22T03:29:03;100724.95;;;20.27;100.00
56174;BME280;42058;52.308;20.924;2023-06-22T03:31:31;100725.99;;;20.27;100.00
56174;BME280;42058;52.308;20.924;2023-06-22T03:33:59;100728.70;;;20.27;100.00
56174;BME280;42058;52.308;20.924;2023-06-22T03:36:27;100730.79;;;20.27;100.00
56174;BME280;42058;52.308;20.924;2023-06-22T03:38:55;100732.95;;;20.27;100.00
56174;BME280;42058;52.308;20.924;2023-06-22T03:41:23;100737.76;;;20.27;100.00
56174;BME280;42058;52.308;20.924;2023-06-22T03:43:51;100742.91;;;20.27;100.00
56174;BME280;42058;52.308;20.924;2023-06-22T03:46:18;100746.61;;;20.28;100.00
56174;BME280;42058;52.308;20.924;2023-06-22T03:48:48;100747.48;;;20.28;100.00
56174;BME280;42058;52.308;20.924;2023-06-22T03:51:15;100751.20;;;20.29;100.00
56174;BME280;42058;52.308;20.924;2023-06-22T03:53:43;100749.92;;;20.29;100.00
56174;BME280;42058;52.308;20.924;2023-06-22T03:56:11;100751.65;;;20.30;100.00
56174;BME280;42058;52.308;20.924;2023-06-22T03:58:39;100755.13;;;20.31;100.00
56174;BME280;42058;52.308;20.924;2023-06-22T04:01:10;100753.14;;;20.32;100.00
56174;BME280;42058;52.308;20.924;2023-06-22T04:03:39;100755.95;;;20.33;100.00
56174;BME280;42058;52.308;20.924;2023-06-22T04:06:23;100757.46;;;20.37;100.00
56174;BME280;42058;52.308;20.924;2023-06-22T04:08:50;100758.89;;;20.37;100.00
56174;BME280;42058;52.308;20.924;2023-06-22T04:11:19;100760.21;;;20.39;100.00
56174;BME280;42058;52.308;20.924;2023-06-22T04:13:46;100761.53;;;20.40;100.00
56174;BME280;42058;52.308;20.924;2023-06-22T04:16:16;100761.95;;;20.42;100.00
56174;BME280;42058;52.308;20.924;2023-06-22T04:18:44;100764.84;;;20.44;100.00
56174;BME280;42058;52.308;20.924;2023-06-22T04:21:11;100763.27;;;20.46;100.00
56174;BME280;42058;52.308;20.924;2023-06-22T04:23:39;100767.18;;;20.49;100.00
56174;BME280;42058;52.308;20.924;2023-06-22T04:26:07;100773.08;;;20.52;100.00
56174;BME280;42058;52.308;20.924;2023-06-22T04:28:34;100777.91;;;20.55;100.00
56174;BME280;42058;52.308;20.924;2023-06-22T04:31:02;100785.62;;;20.57;100.00
56174;BME280;42058;52.308;20.924;2023-06-22T04:33:31;100785.27;;;20.60;100.00
56174;BME280;42058;52.308;20.924;2023-06-22T04:35:59;100777.84;;;20.62;100.00
56174;BME280;42058;52.308;20.924;2023-06-22T04:38:31;100783.18;;;20.65;100.00
56174;BME280;42058;52.308;20.924;2023-06-22T04:41:00;100781.40;;;20.68;100.00
56174;BME280;42058;52.308;20.924;2023-06-22T04:43:31;100779.61;;;20.71;100.00
56174;BME280;42058;52.308;20.924;2023-06-22T04:45:59;100773.43;;;20.73;100.00
56174;BME280;42058;52.308;20.924;2023-06-22T04:48:31;100772.57;;;20.75;100.00
56174;BME280;42058;52.308;20.924;2023-06-22T04:51:01;100775.09;;;20.77;100.00
56174;BME280;42058;52.308;20.924;2023-06-22T04:53:32;100770.67;;;20.80;100.00
56174;BME280;42058;52.308;20.924;2023-06-22T04:56:00;100775.42;;;20.83;100.00
56174;BME280;42058;52.308;20.924;2023-06-22T04:58:27;100772.95;;;20.86;100.00
56174;BME280;42058;52.308;20.924;2023-06-22T05:00:56;100771.88;;;20.89;100.00
56174;BME280;42058;52.308;20.924;2023-06-22T14:17:56;100741.77;;;33.19;39.62
56174;BME280;42058;52.308;20.924;2023-06-22T14:20:33;100745.02;;;33.07;39.98
56174;BME280;42058;52.308;20.924;2023-06-22T14:23:00;100739.88;;;32.96;39.93
56174;BME280;42058;52.308;20.924;2023-06-22T14:25:29;100739.14;;;32.87;40.28
56174;BME280;42058;52.308;20.924;2023-06-22T14:27:59;100741.41;;;32.77;40.47
56174;BME280;42058;52.308;20.924;2023-06-22T14:30:28;100743.52;;;32.65;40.21
56174;BME280;42058;52.308;20.924;2023-06-22T14:33:00;100743.57;;;32.53;40.38
56174;BME280;42058;52.308;20.924;2023-06-22T14:35:38;100745.91;;;32.41;40.24
56174;BME280;42058;52.308;20.924;2023-06-22T14:38:40;100738.11;;;32.31;40.37
56174;BME280;42058;52.308;20.924;2023-06-22T14:41:11;100741.63;;;32.16;40.11
56174;BME280;42058;52.308;20.924;2023-06-22T14:43:46;100729.77;;;32.00;40.35
56174;BME280;42058;52.308;20.924;2023-06-22T14:46:18;100732.84;;;31.91;40.59
56174;BME280;42058;52.308;20.924;2023-06-22T14:48:49;100730.28;;;31.78;40.51
56174;BME280;42058;52.308;20.924;2023-06-22T14:51:19;100730.23;;;31.66;41.04
56174;BME280;42058;52.308;20.924;2023-06-22T14:53:47;100730.77;;;31.55;40.84
56174;BME280;42058;52.308;20.924;2023-06-22T14:56:15;100729.88;;;31.47;40.49
56174;BME280;42058;52.308;20.924;2023-06-22T14:58:43;100730.23;;;31.39;40.80
56174;BME280;42058;52.308;20.924;2023-06-22T15:01:16;100732.58;;;31.31;40.79
56174;BME280;42058;52.308;20.924;2023-06-22T15:03:49;100734.78;;;31.22;40.77
56174;BME280;42058;52.308;20.924;2023-06-22T15:06:18;100734.19;;;31.13;40.65
56174;BME280;42058;52.308;20.924;2023-06-22T15:08:50;100728.39;;;31.01;40.56
56174;BME280;42058;52.308;20.924;2023-06-22T15:11:20;100724.22;;;30.91;40.72
56174;BME280;42058;52.308;20.924;2023-06-22T15:13:52;100727.91;;;30.81;40.61
56174;BME280;42058;52.308;20.924;2023-06-22T15:16:20;100727.15;;;30.74;41.01
56174;BME280;42058;52.308;20.924;2023-06-22T15:18:49;100728.34;;;30.68;41.21
56174;BME280;42058;52.308;20.924;2023-06-22T15:21:17;100722.08;;;30.60;41.20
56174;BME280;42058;52.308;20.924;2023-06-22T15:23:45;100718.41;;;30.52;41.18
56174;BME280;42058;52.308;20.924;2023-06-22T15:26:13;100721.23;;;30.46;41.05
56174;BME280;42058;52.308;20.924;2023-06-22T15:28:41;100719.54;;;30.38;40.97
56174;BME280;42058;52.308;20.924;2023-06-22T15:31:09;100719.23;;;30.30;40.67
56174;BME280;42058;52.308;20.924;2023-06-22T15:33:44;100718.25;;;30.22;40.90
56174;BME280;42058;52.308;20.924;2023-06-22T19:31:42;100706.02;;;25.07;60.61
56174;BME280;42058;52.308;20.924;2023-06-22T19:34:09;100707.92;;;24.89;59.43
56174;BME280;42058;52.308;20.924;2023-06-22T19:36:36;100706.66;;;24.73;60.84
56174;BME280;42058;52.308;20.924;2023-06-22T19:39:04;100700.93;;;24.60;62.86
56174;BME280;42058;52.308;20.924;2023-06-22T19:41:31;100699.65;;;24.47;63.70
56174;BME280;42058;52.308;20.924;2023-06-22T19:44:01;100701.46;;;24.35;67.64
56174;BME280;42058;52.308;20.924;2023-06-22T19:46:32;100694.52;;;24.23;67.57
56174;BME280;42058;52.308;20.924;2023-06-22T19:49:01;100693.48;;;24.14;69.94
56174;BME280;42058;52.308;20.924;2023-06-22T19:51:32;100687.53;;;24.06;70.35
56174;BME280;42058;52.308;20.924;2023-06-22T19:54:09;100686.60;;;23.96;69.65
56174;BME280;42058;52.308;20.924;2023-06-22T19:56:38;100687.05;;;23.88;72.31
56174;BME280;42058;52.308;20.924;2023-06-22T19:59:14;100690.68;;;23.81;71.82
56174;BME280;42058;52.308;20.924;2023-06-22T20:01:42;100689.78;;;23.74;71.83
56174;BME280;42058;52.308;20.924;2023-06-22T20:04:10;100690.77;;;23.68;73.76
56174;BME280;42058;52.308;20.924;2023-06-22T20:06:37;100689.44;;;23.62;74.46
56174;BME280;42058;52.308;20.924;2023-06-22T20:09:05;100686.88;;;23.56;75.91
56174;BME280;42058;52.308;20.924;2023-06-22T20:11:33;100687.48;;;23.48;76.29
56174;BME280;42058;52.308;20.924;2023-06-22T20:14:00;100686.20;;;23.41;75.68
56174;BME280;42058;52.308;20.924;2023-06-22T20:16:29;100681.43;;;23.36;75.98
56174;BME280;42058;52.308;20.924;2023-06-22T20:19:06;100679.86;;;23.31;76.13
56174;BME280;42058;52.308;20.924;2023-06-22T20:21:33;100671.66;;;23.25;75.78
56174;BME280;42058;52.308;20.924;2023-06-22T20:24:04;100665.32;;;23.19;75.07
56174;BME280;42058;52.308;20.924;2023-06-22T20:26:42;100669.13;;;23.14;75.67
56174;BME280;42058;52.308;20.924;2023-06-22T20:29:30;100668.30;;;23.08;76.13
56174;BME280;42058;52.308;20.924;2023-06-22T20:32:06;100673.73;;;23.02;76.97
56174;BME280;42058;52.308;20.924;2023-06-22T20:34:35;100669.80;;;22.97;76.85
56174;BME280;42058;52.308;20.924;2023-06-22T20:37:02;100665.34;;;22.92;76.44
56174;BME280;42058;52.308;20.924;2023-06-22T20:39:29;100660.88;;;22.87;76.23
56174;BME280;42058;52.308;20.924;2023-06-22T20:41:57;100661.17;;;22.83;76.17
56174;BME280;42058;52.308;20.924;2023-06-22T20:44:24;100661.88;;;22.78;76.51
56174;BME280;42058;52.308;20.924;2023-06-22T20:46:50;100660.20;;;22.74;77.23
56174;BME280;42058;52.308;20.924;2023-06-22T20:49:17;100662.95;;;22.71;78.42
56174;BME280;42058;52.308;20.924;2023-06-22T20:51:43;100663.27;;;22.67;79.36
56174;BME280;42058;52.308;20.924;2023-06-22T20:54:10;100663.74;;;22.63;79.84
56174;BME280;42058;52.308;20.924;2023-06-22T20:56:36;100667.13;;;22.58;80.31
56174;BME280;42058;52.308;20.924;2023-06-22T20:59:03;100659.45;;;22.53;79.82
56174;BME280;42058;52.308;20.924;2023-06-22T21:01:29;100653.68;;;22.49;79.38
56174;BME280;42058;52.308;20.924;2023-06-22T21:03:59;100655.65;;;22.43;78.67
56174;BME280;42058;52.308;20.924;2023-06-22T21:06:29;100650.73;;;22.40;78.64
56174;BME280;42058;52.308;20.924;2023-06-22T21:08:59;100649.35;;;22.37;79.00
56174;BME280;42058;52.308;20.924;2023-06-22T21:11:28;100650.63;;;22.34;79.31
56174;BME280;42058;52.308;20.924;2023-06-22T21:13:54;100650.39;;;22.30;79.36
56174;BME280;42058;52.308;20.924;2023-06-22T21:16:28;100654.83;;;22.25;79.62
56174;BME280;42058;52.308;20.924;2023-06-22T21:18:55;100656.02;;;22.21;80.16
56174;BME280;42058;52.308;20.924;2023-06-22T21:21:21;100659.20;;;22.17;80.64
56174;BME280;42058;52.308;20.924;2023-06-22T21:23:48;100659.34;;;22.12;80.90
56174;BME280;42058;52.308;20.924;2023-06-22T21:26:14;100658.51;;;22.09;81.14
56174;BME280;42058;52.308;20.924;2023-06-22T21:28:41;100655.75;;;22.04;81.12
56174;BME280;42058;52.308;20.924;2023-06-22T21:31:07;100651.14;;;22.01;81.42
56174;BME280;42058;52.308;20.924;2023-06-22T21:33:33;100646.69;;;21.99;81.83
56174;BME280;42058;52.308;20.924;2023-06-22T21:36:00;100647.65;;;21.95;82.21
56174;BME280;42058;52.308;20.924;2023-06-22T21:38:27;100651.83;;;21.92;82.21
56174;BME280;42058;52.308;20.924;2023-06-22T21:40:53;100648.44;;;21.89;81.82
56174;BME280;42058;52.308;20.924;2023-06-22T21:43:19;100641.55;;;21.86;81.82
56174;BME280;42058;52.308;20.924;2023-06-22T21:45:46;100642.41;;;21.81;81.69
56174;BME280;42058;52.308;20.924;2023-06-22T21:48:16;100647.34;;;21.77;82.54
56174;BME280;42058;52.308;20.924;2023-06-22T21:50:43;100651.69;;;21.74;82.95
56174;BME280;42058;52.308;20.924;2023-06-22T21:53:09;100652.47;;;21.70;82.95
56174;BME280;42058;52.308;20.924;2023-06-22T21:55:35;100655.33;;;21.67;83.45
56174;BME280;42058;52.308;20.924;2023-06-22T21:58:04;100653.85;;;21.65;83.80
56174;BME280;42058;52.308;20.924;2023-06-22T22:00:33;100651.67;;;21.63;83.23
56174;BME280;42058;52.308;20.924;2023-06-22T22:02:59;100655.17;;;21.61;82.75
56174;BME280;42058;52.308;20.924;2023-06-22T22:05:26;100663.11;;;21.58;81.77
56174;BME280;42058;52.308;20.924;2023-06-22T22:07:52;100669.29;;;21.54;80.68
56174;BME280;42058;52.308;20.924;2023-06-22T22:10:18;100678.64;;;21.50;81.11
56174;BME280;42058;52.308;20.924;2023-06-22T22:12:45;100683.34;;;21.47;82.59
56174;BME280;42058;52.308;20.924;2023-06-22T22:15:12;100691.35;;;21.44;83.41
56174;BME280;42058;52.308;20.924;2023-06-22T22:17:38;100688.45;;;21.42;83.74
56174;BME280;42058;52.308;20.924;2023-06-22T22:20:05;100682.32;;;21.40;83.36
56174;BME280;42058;52.308;20.924;2023-06-22T22:22:32;100675.88;;;21.38;83.47
56174;BME280;42058;52.308;20.924;2023-06-22T22:24:58;100676.55;;;21.36;83.77
56174;BME280;42058;52.308;20.924;2023-06-22T22:27:25;100673.29;;;21.34;83.34
56174;BME280;42058;52.308;20.924;2023-06-22T22:29:51;100663.86;;;21.30;82.92
56174;BME280;42058;52.308;20.924;2023-06-22T22:32:18;100665.46;;;21.28;82.20
56174;BME280;42058;52.308;20.924;2023-06-22T22:34:48;100671.27;;;21.24;81.85
56174;BME280;42058;52.308;20.924;2023-06-22T22:37:14;100677.55;;;21.21;81.75
56174;BME280;42058;52.308;20.924;2023-06-22T22:39:41;100679.86;;;21.19;81.71
56174;BME280;42058;52.308;20.924;2023-06-22T22:42:08;100682.39;;;21.15;82.02
56174;BME280;42058;52.308;20.924;2023-06-22T22:44:37;100686.49;;;21.12;82.32
56174;BME280;42058;52.308;20.924;2023-06-22T22:47:03;100686.00;;;21.09;82.31
56174;BME280;42058;52.308;20.924;2023-06-22T22:49:33;100684.44;;;21.06;82.61
56174;BME280;42058;52.308;20.924;2023-06-22T22:51:59;100677.84;;;21.03;82.71
56174;BME280;42058;52.308;20.924;2023-06-22T22:54:26;100675.50;;;21.01;82.67
56174;BME280;42058;52.308;20.924;2023-06-22T22:56:53;100678.38;;;20.98;82.48
56174;BME280;42058;52.308;20.924;2023-06-22T22:59:19;100674.28;;;20.95;82.34
56174;BME280;42058;52.308;20.924;2023-06-22T23:01:45;100671.08;;;20.92;82.27
56174;BME280;42058;52.308;20.924;2023-06-22T23:04:12;100665.95;;;20.88;82.47
56174;BME280;42058;52.308;20.924;2023-06-22T23:06:44;100661.86;;;20.86;82.22
56174;BME280;42058;52.308;20.924;2023-06-22T23:09:11;100663.41;;;20.84;81.99
56174;BME280;42058;52.308;20.924;2023-06-22T23:11:37;100655.48;;;20.80;81.93
56174;BME280;42058;52.308;20.924;2023-06-22T23:14:03;100649.04;;;20.77;81.50
56174;BME280;42058;52.308;20.924;2023-06-22T23:16:30;100644.83;;;20.73;81.13
56174;BME280;42058;52.308;20.924;2023-06-22T23:18:56;100646.36;;;20.69;80.81
56174;BME280;42058;52.308;20.924;2023-06-22T23:21:23;100644.85;;;20.65;80.93
56174;BME280;42058;52.308;20.924;2023-06-22T23:23:49;100644.53;;;20.62;81.32
56174;BME280;42058;52.308;20.924;2023-06-22T23:26:15;100644.16;;;20.59;81.77
56174;BME280;42058;52.308;20.924;2023-06-22T23:28:42;100641.17;;;20.55;82.04
56174;BME280;42058;52.308;20.924;2023-06-22T23:31:09;100631.92;;;20.52;81.85
56174;BME280;42058;52.308;20.924;2023-06-22T23:33:36;100630.23;;;20.48;81.68
56174;BME280;42058;52.308;20.924;2023-06-22T23:36:04;100628.88;;;20.44;81.52
56174;BME280;42058;52.308;20.924;2023-06-22T23:38:31;100624.11;;;20.41;81.74
56174;BME280;42058;52.308;20.924;2023-06-22T23:41:00;100619.88;;;20.37;81.65
56174;BME280;42058;52.308;20.924;2023-06-22T23:43:29;100613.61;;;20.35;81.88
56174;BME280;42058;52.308;20.924;2023-06-22T23:45:58;100608.17;;;20.31;82.03
56174;BME280;42058;52.308;20.924;2023-06-22T23:48:28;100603.91;;;20.28;82.45
56174;BME280;42058;52.308;20.924;2023-06-22T23:50:54;100598.98;;;20.24;82.58
56174;BME280;42058;52.308;20.924;2023-06-22T23:53:26;100600.80;;;20.21;82.87
56174;BME280;42058;52.308;20.924;2023-06-22T23:55:56;100599.07;;;20.17;83.24
56174;BME280;42058;52.308;20.924;2023-06-22T23:58:24;100598.80;;;20.13;83.45
